sensor_id;sensor_type;location;lat;lon;timestamp;P1;durP1;ratioP1;P2;durP2;ratioP2
70757;SDS011;59316;52.964;7.102;2022-11-18T00:01:46;36.70;;;18.00;;
70757;SDS011;59316;52.964;7.102;2022-11-18T00:06:49;38.22;;;18.55;;
70757;SDS011;59316;52.964;7.102;2022-11-18T00:11:51;39.17;;;17.50;;
70757;SDS011;59316;52.964;7.102;2022-11-18T00:16:54;38.20;;;18.25;;
70757;SDS011;59316;52.964;7.102;2022-11-18T00:21:57;35.55;;;18.23;;
70757;SDS011;59316;52.964;7.102;2022-11-18T00:26:59;40.70;;;17.23;;
70757;SDS011;59316;52.964;7.102;2022-11-18T00:32:02;36.53;;;17.57;;
70757;SDS011;59316;52.964;7.102;2022-11-18T00:37:04;36.85;;;16.38;;
70757;SDS011;59316;52.964;7.102;2022-11-18T00:42:06;34.95;;;16.70;;
70757;SDS011;59316;52.964;7.102;2022-11-18T00:47:08;34.60;;;16.17;;
70757;SDS011;59316;52.964;7.102;2022-11-18T00:52:11;29.17;;;15.80;;
70757;SDS011;59316;52.964;7.102;2022-11-18T00:57:13;35.97;;;16.63;;
70757;SDS011;59316;52.964;7.102;2022-11-18T01:02:15;40.08;;;16.45;;
70757;SDS011;59316;52.964;7.102;2022-11-18T01:07:18;35.10;;;16.73;;
70757;SDS011;59316;52.964;7.102;2022-11-18T01:12:20;36.58;;;16.00;;
70757;SDS011;59316;52.964;7.102;2022-11-18T01:17:22;41.42;;;17.98;;
70757;SDS011;59316;52.964;7.102;2022-11-18T01:22:24;38.92;;;16.42;;
70757;SDS011;59316;52.964;7.102;2022-11-18T01:27:27;29.87;;;15.10;;
70757;SDS011;59316;52.964;7.102;2022-11-18T01:32:29;32.58;;;15.82;;
70757;SDS011;59316;52.964;7.102;2022-11-18T01:37:31;35.50;;;15.95;;
70757;SDS011;59316;52.964;7.102;2022-11-18T01:42:34;38.47;;;15.07;;
70757;SDS011;59316;52.964;7.102;2022-11-18T01:47:41;35.23;;;16.67;;
70757;SDS011;59316;52.964;7.102;2022-11-18T01:52:48;36.90;;;15.57;;
70757;SDS011;59316;52.964;7.102;2022-11-18T01:57:56;38.97;;;17.52;;
70757;SDS011;59316;52.964;7.102;2022-11-18T02:03:04;32.72;;;14.65;;
70757;SDS011;59316;52.964;7.102;2022-11-18T02:08:07;33.58;;;15.02;;
70757;SDS011;59316;52.964;7.102;2022-11-18T02:13:10;34.78;;;14.85;;
70757;SDS011;59316;52.964;7.102;2022-11-18T02:29:20;30.80;;;14.10;;
70757;SDS011;59316;52.964;7.102;2022-11-18T02:39:33;28.17;;;14.30;;
70757;SDS011;59316;52.964;7.102;2022-11-18T02:44:41;28.27;;;13.23;;
70757;SDS011;59316;52.964;7.102;2022-11-18T02:49:52;27.17;;;12.95;;
70757;SDS011;59316;52.964;7.102;2022-11-18T02:54:59;32.20;;;13.18;;
70757;SDS011;59316;52.964;7.102;2022-11-18T03:00:04;29.95;;;13.57;;
70757;SDS011;59316;52.964;7.102;2022-11-18T03:05:08;31.73;;;14.55;;
70757;SDS011;59316;52.964;7.102;2022-11-18T03:10:18;28.70;;;13.38;;
70757;SDS011;59316;52.964;7.102;2022-11-18T03:15:31;31.10;;;13.52;;
70757;SDS011;59316;52.964;7.102;2022-11-18T03:20:51;29.50;;;13.75;;
70757;SDS011;59316;52.964;7.102;2022-11-18T03:26:17;27.83;;;13.40;;
70757;SDS011;59316;52.964;7.102;2022-11-18T03:31:39;28.27;;;12.95;;
70757;SDS011;59316;52.964;7.102;2022-11-18T03:36:45;27.02;;;12.32;;
70757;SDS011;59316;52.964;7.102;2022-11-18T03:42:01;25.42;;;12.98;;
70757;SDS011;59316;52.964;7.102;2022-11-18T03:47:11;27.60;;;12.65;;
70757;SDS011;59316;52.964;7.102;2022-11-18T03:52:21;27.73;;;12.45;;
70757;SDS011;59316;52.964;7.102;2022-11-18T03:57:40;23.98;;;11.32;;
70757;SDS011;59316;52.964;7.102;2022-11-18T04:02:43;27.10;;;12.90;;
70757;SDS011;59316;52.964;7.102;2022-11-18T04:07:56;25.92;;;12.55;;
70757;SDS011;59316;52.964;7.102;2022-11-18T04:13:04;32.20;;;11.98;;
70757;SDS011;59316;52.964;7.102;2022-11-18T04:18:29;29.67;;;12.45;;
70757;SDS011;59316;52.964;7.102;2022-11-18T04:23:32;29.00;;;12.93;;
70757;SDS011;59316;52.964;7.102;2022-11-18T04:28:34;31.73;;;12.25;;
70757;SDS011;59316;52.964;7.102;2022-11-18T04:33:36;31.40;;;13.43;;
70757;SDS011;59316;52.964;7.102;2022-11-18T04:38:39;28.80;;;12.95;;
70757;SDS011;59316;52.964;7.102;2022-11-18T04:43:41;27.95;;;12.35;;
70757;SDS011;59316;52.964;7.102;2022-11-18T04:48:43;31.15;;;13.23;;
70757;SDS011;59316;52.964;7.102;2022-11-18T04:53:45;28.58;;;11.73;;
70757;SDS011;59316;52.964;7.102;2022-11-18T04:58:48;34.38;;;13.55;;
70757;SDS011;59316;52.964;7.102;2022-11-18T05:03:50;37.65;;;13.20;;
70757;SDS011;59316;52.964;7.102;2022-11-18T05:08:52;31.83;;;13.02;;
70757;SDS011;59316;52.964;7.102;2022-11-18T05:13:56;35.20;;;13.75;;
70757;SDS011;59316;52.964;7.102;2022-11-18T05:18:58;36.70;;;13.68;;
70757;SDS011;59316;52.964;7.102;2022-11-18T05:24:02;36.25;;;13.20;;
70757;SDS011;59316;52.964;7.102;2022-11-18T05:29:05;38.85;;;13.77;;
70757;SDS011;59316;52.964;7.102;2022-11-18T05:34:08;42.40;;;14.98;;
70757;SDS011;59316;52.964;7.102;2022-11-18T05:39:10;36.40;;;13.40;;
70757;SDS011;59316;52.964;7.102;2022-11-18T05:44:12;45.25;;;15.40;;
70757;SDS011;59316;52.964;7.102;2022-11-18T05:49:15;39.70;;;14.18;;
70757;SDS011;59316;52.964;7.102;2022-11-18T05:54:18;37.53;;;15.37;;
70757;SDS011;59316;52.964;7.102;2022-11-18T06:09:51;46.42;;;14.98;;
70757;SDS011;59316;52.964;7.102;2022-11-18T06:15:00;38.33;;;13.73;;
70757;SDS011;59316;52.964;7.102;2022-11-18T06:20:16;40.17;;;13.20;;
70757;SDS011;59316;52.964;7.102;2022-11-18T06:25:22;35.47;;;13.70;;
70757;SDS011;59316;52.964;7.102;2022-11-18T06:30:25;39.72;;;13.52;;
70757;SDS011;59316;52.964;7.102;2022-11-18T06:35:27;37.58;;;12.93;;
70757;SDS011;59316;52.964;7.102;2022-11-18T06:40:29;38.45;;;13.45;;
70757;SDS011;59316;52.964;7.102;2022-11-18T06:45:35;38.80;;;12.43;;
70757;SDS011;59316;52.964;7.102;2022-11-18T06:50:37;36.40;;;13.15;;
70757;SDS011;59316;52.964;7.102;2022-11-18T06:55:40;30.15;;;11.70;;
70757;SDS011;59316;52.964;7.102;2022-11-18T07:00:42;28.88;;;10.45;;
70757;SDS011;59316;52.964;7.102;2022-11-18T07:05:44;30.13;;;11.38;;
70757;SDS011;59316;52.964;7.102;2022-11-18T07:10:53;28.08;;;11.27;;
70757;SDS011;59316;52.964;7.102;2022-11-18T07:15:55;25.83;;;10.82;;
70757;SDS011;59316;52.964;7.102;2022-11-18T07:21:05;28.50;;;10.93;;
70757;SDS011;59316;52.964;7.102;2022-11-18T07:26:09;27.33;;;10.15;;
70757;SDS011;59316;52.964;7.102;2022-11-18T07:31:12;28.20;;;10.53;;
70757;SDS011;59316;52.964;7.102;2022-11-18T07:36:17;24.77;;;9.40;;
70757;SDS011;59316;52.964;7.102;2022-11-18T07:41:22;29.90;;;11.05;;
70757;SDS011;59316;52.964;7.102;2022-11-18T07:46:27;24.98;;;9.73;;
70757;SDS011;59316;52.964;7.102;2022-11-18T07:51:34;25.40;;;9.43;;
70757;SDS011;59316;52.964;7.102;2022-11-18T07:56:38;22.63;;;8.43;;
70757;SDS011;59316;52.964;7.102;2022-11-18T08:01:40;25.48;;;9.25;;
70757;SDS011;59316;52.964;7.102;2022-11-18T08:06:42;25.35;;;9.10;;
70757;SDS011;59316;52.964;7.102;2022-11-18T08:11:45;22.38;;;9.35;;
70757;SDS011;59316;52.964;7.102;2022-11-18T08:16:47;25.10;;;9.45;;
70757;SDS011;59316;52.964;7.102;2022-11-18T08:21:49;24.45;;;9.73;;
70757;SDS011;59316;52.964;7.102;2022-11-18T08:26:51;28.00;;;10.35;;
70757;SDS011;59316;52.964;7.102;2022-11-18T08:31:54;26.35;;;10.95;;
70757;SDS011;59316;52.964;7.102;2022-11-18T08:36:56;30.80;;;10.85;;
70757;SDS011;59316;52.964;7.102;2022-11-18T08:41:58;27.73;;;12.17;;
70757;SDS011;59316;52.964;7.102;2022-11-18T08:47:01;27.27;;;10.43;;
70757;SDS011;59316;52.964;7.102;2022-11-18T08:52:03;29.02;;;11.02;;
70757;SDS011;59316;52.964;7.102;2022-11-18T08:57:07;31.83;;;12.20;;
70757;SDS011;59316;52.964;7.102;2022-11-18T09:02:12;31.58;;;11.95;;
70757;SDS011;59316;52.964;7.102;2022-11-18T09:07:16;26.67;;;10.82;;
70757;SDS011;59316;52.964;7.102;2022-11-18T09:12:19;33.03;;;11.00;;
70757;SDS011;59316;52.964;7.102;2022-11-18T09:17:22;25.83;;;10.18;;
70757;SDS011;59316;52.964;7.102;2022-11-18T09:22:24;26.00;;;10.45;;
70757;SDS011;59316;52.964;7.102;2022-11-18T09:27:26;29.57;;;11.10;;
70757;SDS011;59316;52.964;7.102;2022-11-18T09:32:29;30.85;;;10.85;;
70757;SDS011;59316;52.964;7.102;2022-11-18T09:37:31;29.42;;;11.40;;
70757;SDS011;59316;52.964;7.102;2022-11-18T09:47:58;30.17;;;11.52;;
70757;SDS011;59316;52.964;7.102;2022-11-18T09:53:19;26.65;;;10.57;;
70757;SDS011;59316;52.964;7.102;2022-11-18T09:58:31;35.00;;;11.98;;
70757;SDS011;59316;52.964;7.102;2022-11-18T10:03:36;34.80;;;12.37;;
70757;SDS011;59316;52.964;7.102;2022-11-18T10:24:32;31.08;;;12.93;;
70757;SDS011;59316;52.964;7.102;2022-11-18T10:29:40;32.70;;;13.48;;
70757;SDS011;59316;52.964;7.102;2022-11-18T10:34:51;30.80;;;11.95;;
70757;SDS011;59316;52.964;7.102;2022-11-18T10:39:56;31.00;;;11.20;;
70757;SDS011;59316;52.964;7.102;2022-11-18T10:50:28;32.00;;;12.32;;
70757;SDS011;59316;52.964;7.102;2022-11-18T10:55:32;26.40;;;11.70;;
70757;SDS011;59316;52.964;7.102;2022-11-18T11:00:38;32.88;;;11.95;;
70757;SDS011;59316;52.964;7.102;2022-11-18T11:05:41;34.58;;;11.98;;
70757;SDS011;59316;52.964;7.102;2022-11-18T11:10:56;26.92;;;11.15;;
70757;SDS011;59316;52.964;7.102;2022-11-18T11:16:00;27.08;;;11.63;;
70757;SDS011;59316;52.964;7.102;2022-11-18T11:21:17;32.67;;;12.43;;
70757;SDS011;59316;52.964;7.102;2022-11-18T11:26:34;35.97;;;12.90;;
70757;SDS011;59316;52.964;7.102;2022-11-18T11:53:16;38.50;;;13.68;;
70757;SDS011;59316;52.964;7.102;2022-11-18T12:03:36;34.97;;;13.27;;
70757;SDS011;59316;52.964;7.102;2022-11-18T12:09:24;36.10;;;13.32;;
70757;SDS011;59316;52.964;7.102;2022-11-18T12:19:26;41.00;;;14.05;;
70757;SDS011;59316;52.964;7.102;2022-11-18T12:24:30;38.17;;;14.40;;
70757;SDS011;59316;52.964;7.102;2022-11-18T12:34:42;35.05;;;13.32;;
70757;SDS011;59316;52.964;7.102;2022-11-18T12:44:50;39.00;;;12.90;;
70757;SDS011;59316;52.964;7.102;2022-11-18T13:00:33;37.35;;;14.68;;
70757;SDS011;59316;52.964;7.102;2022-11-18T13:05:36;40.23;;;15.27;;
70757;SDS011;59316;52.964;7.102;2022-11-18T13:10:45;41.78;;;13.75;;
70757;SDS011;59316;52.964;7.102;2022-11-18T13:15:53;32.88;;;12.98;;
70757;SDS011;59316;52.964;7.102;2022-11-18T13:21:00;32.85;;;13.35;;
70757;SDS011;59316;52.964;7.102;2022-11-18T13:26:06;40.05;;;13.93;;
70757;SDS011;59316;52.964;7.102;2022-11-18T13:31:16;33.40;;;12.65;;
70757;SDS011;59316;52.964;7.102;2022-11-18T13:36:23;38.08;;;13.60;;
70757;SDS011;59316;52.964;7.102;2022-11-18T13:41:27;36.97;;;13.43;;
70757;SDS011;59316;52.964;7.102;2022-11-18T13:46:31;31.10;;;12.00;;
70757;SDS011;59316;52.964;7.102;2022-11-18T13:51:34;29.38;;;11.60;;
70757;SDS011;59316;52.964;7.102;2022-11-18T13:56:36;34.67;;;11.98;;
70757;SDS011;59316;52.964;7.102;2022-11-18T14:01:40;35.78;;;13.43;;
70757;SDS011;59316;52.964;7.102;2022-11-18T14:06:42;41.40;;;13.43;;
70757;SDS011;59316;52.964;7.102;2022-11-18T14:11:46;33.13;;;12.63;;
70757;SDS011;59316;52.964;7.102;2022-11-18T14:22:25;40.78;;;13.68;;
70757;SDS011;59316;52.964;7.102;2022-11-18T14:27:33;35.17;;;13.20;;
70757;SDS011;59316;52.964;7.102;2022-11-18T14:32:37;33.70;;;13.20;;
70757;SDS011;59316;52.964;7.102;2022-11-18T14:37:39;34.03;;;13.70;;
70757;SDS011;59316;52.964;7.102;2022-11-18T14:42:41;33.42;;;12.65;;
70757;SDS011;59316;52.964;7.102;2022-11-18T14:47:44;36.20;;;12.68;;
70757;SDS011;59316;52.964;7.102;2022-11-18T14:52:46;38.55;;;12.35;;
70757;SDS011;59316;52.964;7.102;2022-11-18T14:57:48;32.85;;;12.93;;
70757;SDS011;59316;52.964;7.102;2022-11-18T15:02:50;36.60;;;12.68;;
70757;SDS011;59316;52.964;7.102;2022-11-18T15:07:53;33.75;;;11.23;;
70757;SDS011;59316;52.964;7.102;2022-11-18T15:12:55;35.67;;;13.07;;
70757;SDS011;59316;52.964;7.102;2022-11-18T15:17:57;39.25;;;13.82;;
70757;SDS011;59316;52.964;7.102;2022-11-18T15:23:00;29.10;;;12.10;;
70757;SDS011;59316;52.964;7.102;2022-11-18T15:28:02;33.65;;;12.10;;
70757;SDS011;59316;52.964;7.102;2022-11-18T15:33:04;36.57;;;12.43;;
70757;SDS011;59316;52.964;7.102;2022-11-18T15:38:08;32.22;;;11.85;;
70757;SDS011;59316;52.964;7.102;2022-11-18T15:43:11;35.05;;;13.55;;
70757;SDS011;59316;52.964;7.102;2022-11-18T15:48:14;36.53;;;12.10;;
70757;SDS011;59316;52.964;7.102;2022-11-18T15:53:16;32.13;;;11.68;;
70757;SDS011;59316;52.964;7.102;2022-11-18T15:58:18;28.95;;;11.20;;
70757;SDS011;59316;52.964;7.102;2022-11-18T16:03:21;22.80;;;10.07;;
70757;SDS011;59316;52.964;7.102;2022-11-18T16:08:23;26.48;;;8.77;;
70757;SDS011;59316;52.964;7.102;2022-11-18T16:13:25;22.88;;;10.00;;
70757;SDS011;59316;52.964;7.102;2022-11-18T16:18:28;24.15;;;9.85;;
70757;SDS011;59316;52.964;7.102;2022-11-18T16:23:30;23.48;;;10.18;;
70757;SDS011;59316;52.964;7.102;2022-11-18T16:28:32;27.25;;;11.52;;
70757;SDS011;59316;52.964;7.102;2022-11-18T16:33:34;22.83;;;10.43;;
70757;SDS011;59316;52.964;7.102;2022-11-18T16:38:36;25.88;;;11.20;;
70757;SDS011;59316;52.964;7.102;2022-11-18T16:43:38;28.83;;;11.88;;
70757;SDS011;59316;52.964;7.102;2022-11-18T16:48:40;29.77;;;11.60;;
70757;SDS011;59316;52.964;7.102;2022-11-18T16:53:42;29.63;;;12.07;;
70757;SDS011;59316;52.964;7.102;2022-11-18T16:58:44;28.33;;;12.95;;
70757;SDS011;59316;52.964;7.102;2022-11-18T17:03:45;35.35;;;15.48;;
70757;SDS011;59316;52.964;7.102;2022-11-18T17:08:47;36.60;;;16.50;;
70757;SDS011;59316;52.964;7.102;2022-11-18T17:13:49;33.95;;;14.98;;
70757;SDS011;59316;52.964;7.102;2022-11-18T17:18:58;34.60;;;15.68;;
70757;SDS011;59316;52.964;7.102;2022-11-18T17:24:00;31.87;;;14.23;;
70757;SDS011;59316;52.964;7.102;2022-11-18T17:29:05;35.55;;;16.13;;
70757;SDS011;59316;52.964;7.102;2022-11-18T17:34:10;38.80;;;15.32;;
70757;SDS011;59316;52.964;7.102;2022-11-18T17:39:12;34.63;;;15.73;;
70757;SDS011;59316;52.964;7.102;2022-11-18T17:44:15;38.53;;;16.17;;
70757;SDS011;59316;52.964;7.102;2022-11-18T17:49:18;47.40;;;16.17;;
70757;SDS011;59316;52.964;7.102;2022-11-18T17:54:20;36.00;;;15.20;;
70757;SDS011;59316;52.964;7.102;2022-11-18T17:59:22;42.60;;;17.15;;
70757;SDS011;59316;52.964;7.102;2022-11-18T18:04:24;47.08;;;17.75;;
70757;SDS011;59316;52.964;7.102;2022-11-18T18:09:26;48.63;;;17.85;;
70757;SDS011;59316;52.964;7.102;2022-11-18T18:14:32;48.38;;;18.38;;
70757;SDS011;59316;52.964;7.102;2022-11-18T18:19:33;43.17;;;18.27;;
70757;SDS011;59316;52.964;7.102;2022-11-18T18:24:35;45.70;;;17.92;;
70757;SDS011;59316;52.964;7.102;2022-11-18T18:29:37;54.17;;;19.55;;
70757;SDS011;59316;52.964;7.102;2022-11-18T18:34:39;45.92;;;18.58;;
70757;SDS011;59316;52.964;7.102;2022-11-18T18:39:41;49.85;;;20.02;;
70757;SDS011;59316;52.964;7.102;2022-11-18T18:44:42;43.33;;;18.30;;
70757;SDS011;59316;52.964;7.102;2022-11-18T18:49:44;48.55;;;19.25;;
70757;SDS011;59316;52.964;7.102;2022-11-18T18:54:46;38.53;;;16.42;;
70757;SDS011;59316;52.964;7.102;2022-11-18T18:59:48;42.30;;;17.45;;
70757;SDS011;59316;52.964;7.102;2022-11-18T19:04:51;42.40;;;17.65;;
70757;SDS011;59316;52.964;7.102;2022-11-18T19:09:52;42.58;;;18.35;;
70757;SDS011;59316;52.964;7.102;2022-11-18T19:14:54;35.42;;;15.98;;
70757;SDS011;59316;52.964;7.102;2022-11-18T19:19:56;31.27;;;14.30;;
70757;SDS011;59316;52.964;7.102;2022-11-18T19:24:58;26.83;;;11.90;;
70757;SDS011;59316;52.964;7.102;2022-11-18T19:30:01;28.45;;;13.05;;
70757;SDS011;59316;52.964;7.102;2022-11-18T19:35:03;30.98;;;13.88;;
70757;SDS011;59316;52.964;7.102;2022-11-18T19:40:06;33.03;;;14.95;;
70757;SDS011;59316;52.964;7.102;2022-11-18T19:45:11;24.15;;;11.00;;
70757;SDS011;59316;52.964;7.102;2022-11-18T19:50:13;20.75;;;10.65;;
70757;SDS011;59316;52.964;7.102;2022-11-18T19:55:14;21.00;;;10.38;;
70757;SDS011;59316;52.964;7.102;2022-11-18T20:00:16;20.45;;;9.45;;
70757;SDS011;59316;52.964;7.102;2022-11-18T20:05:18;17.50;;;9.10;;
70757;SDS011;59316;52.964;7.102;2022-11-18T20:10:20;18.65;;;9.27;;
70757;SDS011;59316;52.964;7.102;2022-11-18T20:15:22;18.95;;;8.93;;
70757;SDS011;59316;52.964;7.102;2022-11-18T20:20:24;16.20;;;9.00;;
70757;SDS011;59316;52.964;7.102;2022-11-18T20:25:26;14.55;;;7.78;;
70757;SDS011;59316;52.964;7.102;2022-11-18T20:30:28;17.35;;;7.53;;
70757;SDS011;59316;52.964;7.102;2022-11-18T20:35:29;14.27;;;7.43;;
70757;SDS011;59316;52.964;7.102;2022-11-18T20:40:31;16.20;;;8.23;;
70757;SDS011;59316;52.964;7.102;2022-11-18T20:45:33;14.48;;;7.10;;
70757;SDS011;59316;52.964;7.102;2022-11-18T20:50:35;13.70;;;7.50;;
70757;SDS011;59316;52.964;7.102;2022-11-18T20:55:37;14.70;;;7.53;;
70757;SDS011;59316;52.964;7.102;2022-11-18T21:00:39;13.82;;;6.60;;
70757;SDS011;59316;52.964;7.102;2022-11-18T21:05:41;14.93;;;7.15;;
70757;SDS011;59316;52.964;7.102;2022-11-18T21:10:43;11.05;;;6.38;;
70757;SDS011;59316;52.964;7.102;2022-11-18T21:15:45;12.65;;;6.53;;
70757;SDS011;59316;52.964;7.102;2022-11-18T21:20:47;11.77;;;6.20;;
70757;SDS011;59316;52.964;7.102;2022-11-18T21:25:49;14.35;;;6.72;;
70757;SDS011;59316;52.964;7.102;2022-11-18T21:30:51;11.45;;;5.88;;
70757;SDS011;59316;52.964;7.102;2022-11-18T21:35:53;11.50;;;6.05;;
70757;SDS011;59316;52.964;7.102;2022-11-18T21:41:00;11.55;;;5.88;;
70757;SDS011;59316;52.964;7.102;2022-11-18T21:46:02;11.38;;;4.82;;
70757;SDS011;59316;52.964;7.102;2022-11-18T21:51:06;11.13;;;5.32;;
70757;SDS011;59316;52.964;7.102;2022-11-18T21:56:12;12.35;;;6.05;;
70757;SDS011;59316;52.964;7.102;2022-11-18T22:01:21;10.05;;;5.22;;
70757;SDS011;59316;52.964;7.102;2022-11-18T22:06:24;10.60;;;5.47;;
70757;SDS011;59316;52.964;7.102;2022-11-18T22:11:26;8.45;;;4.80;;
70757;SDS011;59316;52.964;7.102;2022-11-18T22:16:28;8.30;;;4.38;;
70757;SDS011;59316;52.964;7.102;2022-11-18T22:21:29;7.90;;;4.70;;
70757;SDS011;59316;52.964;7.102;2022-11-18T22:26:31;9.63;;;4.10;;
70757;SDS011;59316;52.964;7.102;2022-11-18T22:31:33;8.20;;;4.53;;
70757;SDS011;59316;52.964;7.102;2022-11-18T22:36:35;7.65;;;4.38;;
70757;SDS011;59316;52.964;7.102;2022-11-18T22:41:37;7.25;;;3.65;;
70757;SDS011;59316;52.964;7.102;2022-11-18T22:46:39;6.25;;;3.70;;
70757;SDS011;59316;52.964;7.102;2022-11-18T22:51:41;6.50;;;3.88;;
70757;SDS011;59316;52.964;7.102;2022-11-18T22:56:43;7.57;;;4.05;;
70757;SDS011;59316;52.964;7.102;2022-11-18T23:01:45;8.15;;;4.03;;
70757;SDS011;59316;52.964;7.102;2022-11-18T23:06:47;6.07;;;3.88;;
70757;SDS011;59316;52.964;7.102;2022-11-18T23:11:49;5.82;;;3.17;;
70757;SDS011;59316;52.964;7.102;2022-11-18T23:16:51;6.53;;;4.00;;
70757;SDS011;59316;52.964;7.102;2022-11-18T23:21:52;6.35;;;3.10;;
70757;SDS011;59316;52.964;7.102;2022-11-18T23:26:54;5.75;;;3.55;;
70757;SDS011;59316;52.964;7.102;2022-11-18T23:31:56;8.30;;;3.70;;
70757;SDS011;59316;52.964;7.102;2022-11-18T23:36:58;5.22;;;3.00;;
70757;SDS011;59316;52.964;7.102;2022-11-18T23:42:00;6.47;;;3.33;;
70757;SDS011;59316;52.964;7.102;2022-11-18T23:47:01;6.10;;;3.25;;
70757;SDS011;59316;52.964;7.102;2022-11-18T23:52:03;6.47;;;3.20;;
70757;SDS011;59316;52.964;7.102;2022-11-18T23:57:05;6.97;;;3.45;;
